sensor_id;sensor_type;location;lat;lon;timestamp;temperature;humidity
63317;DHT22;49822;41.468;13.560;2023-03-14T00:00:59;11.20;86.80
63317;DHT22;49822;41.468;13.560;2023-03-14T00:03:28;11.30;87.60
63317;DHT22;49822;41.468;13.560;2023-03-14T00:05:56;11.30;87.00
63317;DHT22;49822;41.468;13.560;2023-03-14T00:08:23;11.40;87.00
63317;DHT22;49822;41.468;13.560;2023-03-14T00:10:51;11.20;86.70
63317;DHT22;49822;41.468;13.560;2023-03-14T00:13:19;11.10;86.60
63317;DHT22;49822;41.468;13.560;2023-03-14T00:15:46;11.10;88.30
63317;DHT22;49822;41.468;13.560;2023-03-14T00:18:15;11.20;87.50
63317;DHT22;49822;41.468;13.560;2023-03-14T00:20:42;11.20;86.30
63317;DHT22;49822;41.468;13.560;2023-03-14T00:23:09;11.20;86.10
63317;DHT22;49822;41.468;13.560;2023-03-14T00:25:37;11.20;86.60
63317;DHT22;49822;41.468;13.560;2023-03-14T00:28:04;11.20;86.20
63317;DHT22;49822;41.468;13.560;2023-03-14T00:30:32;11.20;85.20
63317;DHT22;49822;41.468;13.560;2023-03-14T00:33:02;11.10;85.80
63317;DHT22;49822;41.468;13.560;2023-03-14T00:35:29;11.00;87.60
63317;DHT22;49822;41.468;13.560;2023-03-14T00:37:57;11.00;86.40
63317;DHT22;49822;41.468;13.560;2023-03-14T00:40:24;10.80;86.10
63317;DHT22;49822;41.468;13.560;2023-03-14T00:42:52;10.80;87.60
63317;DHT22;49822;41.468;13.560;2023-03-14T00:45:20;10.90;88.50
63317;DHT22;49822;41.468;13.560;2023-03-14T00:47:52;10.90;87.70
63317;DHT22;49822;41.468;13.560;2023-03-14T00:50:20;11.00;87.80
63317;DHT22;49822;41.468;13.560;2023-03-14T00:52:47;11.10;87.30
63317;DHT22;49822;41.468;13.560;2023-03-14T00:55:16;11.00;86.50
63317;DHT22;49822;41.468;13.560;2023-03-14T00:57:44;11.00;87.80
63317;DHT22;49822;41.468;13.560;2023-03-14T01:00:12;10.90;87.80
63317;DHT22;49822;41.468;13.560;2023-03-14T01:02:40;10.90;89.00
63317;DHT22;49822;41.468;13.560;2023-03-14T01:05:08;10.90;88.40
63317;DHT22;49822;41.468;13.560;2023-03-14T01:07:37;11.00;88.00
63317;DHT22;49822;41.468;13.560;2023-03-14T01:10:06;10.90;87.20
63317;DHT22;49822;41.468;13.560;2023-03-14T01:12:33;11.00;87.10
63317;DHT22;49822;41.468;13.560;2023-03-14T01:15:01;10.90;86.10
63317;DHT22;49822;41.468;13.560;2023-03-14T01:17:29;10.90;86.60
63317;DHT22;49822;41.468;13.560;2023-03-14T01:19:57;10.90;86.50
63317;DHT22;49822;41.468;13.560;2023-03-14T01:22:24;10.90;86.20
63317;DHT22;49822;41.468;13.560;2023-03-14T01:24:52;10.80;86.80
63317;DHT22;49822;41.468;13.560;2023-03-14T01:27:19;10.80;86.60
63317;DHT22;49822;41.468;13.560;2023-03-14T01:29:47;10.80;86.50
63317;DHT22;49822;41.468;13.560;2023-03-14T01:32:15;10.90;86.30
63317;DHT22;49822;41.468;13.560;2023-03-14T01:34:43;10.80;86.10
63317;DHT22;49822;41.468;13.560;2023-03-14T01:37:10;10.70;85.80
63317;DHT22;49822;41.468;13.560;2023-03-14T01:39:40;10.80;85.50
63317;DHT22;49822;41.468;13.560;2023-03-14T01:42:08;10.70;85.70
63317;DHT22;49822;41.468;13.560;2023-03-14T01:47:21;10.60;85.40
63317;DHT22;49822;41.468;13.560;2023-03-14T01:49:58;10.60;86.00
63317;DHT22;49822;41.468;13.560;2023-03-14T01:52:35;10.60;85.60
63317;DHT22;49822;41.468;13.560;2023-03-14T01:55:07;10.50;84.60
63317;DHT22;49822;41.468;13.560;2023-03-14T01:57:40;10.30;85.30
63317;DHT22;49822;41.468;13.560;2023-03-14T02:00:17;10.20;85.90
63317;DHT22;49822;41.468;13.560;2023-03-14T02:02:50;10.20;86.40
63317;DHT22;49822;41.468;13.560;2023-03-14T02:05:23;10.20;87.20
63317;DHT22;49822;41.468;13.560;2023-03-14T02:07:59;10.20;87.00
63317;DHT22;49822;41.468;13.560;2023-03-14T02:10:39;10.40;86.20
63317;DHT22;49822;41.468;13.560;2023-03-14T02:13:11;10.40;86.00
63317;DHT22;49822;41.468;13.560;2023-03-14T02:15:58;10.40;85.90
63317;DHT22;49822;41.468;13.560;2023-03-14T02:18:52;10.50;85.80
63317;DHT22;49822;41.468;13.560;2023-03-14T02:22:05;10.50;86.20
63317;DHT22;49822;41.468;13.560;2023-03-14T02:28:06;10.60;86.30
63317;DHT22;49822;41.468;13.560;2023-03-14T02:30:36;10.60;87.10
63317;DHT22;49822;41.468;13.560;2023-03-14T02:33:10;10.60;86.80
63317;DHT22;49822;41.468;13.560;2023-03-14T02:35:58;10.20;88.20
63317;DHT22;49822;41.468;13.560;2023-03-14T02:41:19;9.70;92.60
63317;DHT22;49822;41.468;13.560;2023-03-14T02:43:57;9.70;93.50
63317;DHT22;49822;41.468;13.560;2023-03-14T02:46:24;9.90;93.30
63317;DHT22;49822;41.468;13.560;2023-03-14T02:49:03;10.00;93.20
63317;DHT22;49822;41.468;13.560;2023-03-14T02:51:32;10.20;93.00
63317;DHT22;49822;41.468;13.560;2023-03-14T02:54:00;10.30;92.50
63317;DHT22;49822;41.468;13.560;2023-03-14T02:56:27;10.50;92.10
63317;DHT22;49822;41.468;13.560;2023-03-14T02:58:55;10.60;91.40
63317;DHT22;49822;41.468;13.560;2023-03-14T03:01:40;10.60;90.10
63317;DHT22;49822;41.468;13.560;2023-03-14T03:04:08;10.70;90.20
63317;DHT22;49822;41.468;13.560;2023-03-14T03:06:36;10.60;89.40
63317;DHT22;49822;41.468;13.560;2023-03-14T03:09:03;10.80;89.20
63317;DHT22;49822;41.468;13.560;2023-03-14T03:11:31;10.80;88.60
63317;DHT22;49822;41.468;13.560;2023-03-14T03:13:59;10.80;89.30
63317;DHT22;49822;41.468;13.560;2023-03-14T03:16:27;10.70;89.20
63317;DHT22;49822;41.468;13.560;2023-03-14T03:18:56;10.80;89.60
63317;DHT22;49822;41.468;13.560;2023-03-14T03:21:23;10.70;89.70
63317;DHT22;49822;41.468;13.560;2023-03-14T03:23:50;10.70;89.60
63317;DHT22;49822;41.468;13.560;2023-03-14T03:26:19;10.60;88.40
63317;DHT22;49822;41.468;13.560;2023-03-14T03:28:46;10.40;90.80
63317;DHT22;49822;41.468;13.560;2023-03-14T03:31:15;10.40;92.90
63317;DHT22;49822;41.468;13.560;2023-03-14T03:33:43;10.40;92.80
63317;DHT22;49822;41.468;13.560;2023-03-14T03:36:10;10.50;91.10
63317;DHT22;49822;41.468;13.560;2023-03-14T03:38:39;10.60;90.30
63317;DHT22;49822;41.468;13.560;2023-03-14T03:41:07;10.70;89.40
63317;DHT22;49822;41.468;13.560;2023-03-14T03:43:36;10.60;88.70
63317;DHT22;49822;41.468;13.560;2023-03-14T03:46:06;10.50;88.50
63317;DHT22;49822;41.468;13.560;2023-03-14T03:48:35;10.60;88.10
63317;DHT22;49822;41.468;13.560;2023-03-14T03:51:04;10.40;87.10
63317;DHT22;49822;41.468;13.560;2023-03-14T03:53:33;10.40;87.00
63317;DHT22;49822;41.468;13.560;2023-03-14T03:56:05;10.40;88.90
63317;DHT22;49822;41.468;13.560;2023-03-14T03:58:33;10.30;89.40
63317;DHT22;49822;41.468;13.560;2023-03-14T04:01:02;10.40;88.90
63317;DHT22;49822;41.468;13.560;2023-03-14T04:03:29;10.30;88.00
63317;DHT22;49822;41.468;13.560;2023-03-14T04:06:02;10.40;87.70
63317;DHT22;49822;41.468;13.560;2023-03-14T04:08:32;10.30;88.60
63317;DHT22;49822;41.468;13.560;2023-03-14T04:11:00;10.20;89.20
63317;DHT22;49822;41.468;13.560;2023-03-14T04:13:46;10.20;90.80
63317;DHT22;49822;41.468;13.560;2023-03-14T04:16:17;10.20;89.20
63317;DHT22;49822;41.468;13.560;2023-03-14T04:18:45;10.20;89.20
63317;DHT22;49822;41.468;13.560;2023-03-14T04:21:12;10.20;90.90
63317;DHT22;49822;41.468;13.560;2023-03-14T04:23:54;10.20;89.70
63317;DHT22;49822;41.468;13.560;2023-03-14T04:26:22;10.20;87.90
63317;DHT22;49822;41.468;13.560;2023-03-14T04:28:49;10.10;87.90
63317;DHT22;49822;41.468;13.560;2023-03-14T04:31:20;10.10;87.90
63317;DHT22;49822;41.468;13.560;2023-03-14T04:33:50;10.10;87.60
63317;DHT22;49822;41.468;13.560;2023-03-14T04:36:25;10.10;86.70
63317;DHT22;49822;41.468;13.560;2023-03-14T04:38:53;10.10;87.40
63317;DHT22;49822;41.468;13.560;2023-03-14T04:41:23;10.10;87.80
63317;DHT22;49822;41.468;13.560;2023-03-14T04:43:50;10.10;87.70
63317;DHT22;49822;41.468;13.560;2023-03-14T04:46:18;10.10;88.50
63317;DHT22;49822;41.468;13.560;2023-03-14T04:48:46;10.20;88.60
63317;DHT22;49822;41.468;13.560;2023-03-14T04:51:16;10.30;88.30
63317;DHT22;49822;41.468;13.560;2023-03-14T04:53:44;10.40;87.90
63317;DHT22;49822;41.468;13.560;2023-03-14T04:56:13;10.30;88.70
63317;DHT22;49822;41.468;13.560;2023-03-14T04:58:43;10.40;89.00
63317;DHT22;49822;41.468;13.560;2023-03-14T05:01:14;10.30;89.20
63317;DHT22;49822;41.468;13.560;2023-03-14T05:04:15;10.40;89.50
63317;DHT22;49822;41.468;13.560;2023-03-14T05:06:56;10.30;90.00
63317;DHT22;49822;41.468;13.560;2023-03-14T05:09:31;10.40;91.10
63317;DHT22;49822;41.468;13.560;2023-03-14T05:12:20;10.50;89.70
63317;DHT22;49822;41.468;13.560;2023-03-14T05:15:17;10.60;90.50
63317;DHT22;49822;41.468;13.560;2023-03-14T05:18:09;10.60;88.60
63317;DHT22;49822;41.468;13.560;2023-03-14T05:20:56;10.50;88.20
63317;DHT22;49822;41.468;13.560;2023-03-14T05:23:42;10.50;87.90
63317;DHT22;49822;41.468;13.560;2023-03-14T05:26:29;10.50;88.70
63317;DHT22;49822;41.468;13.560;2023-03-14T05:29:15;10.60;91.20
63317;DHT22;49822;41.468;13.560;2023-03-14T05:32:09;10.60;91.50
63317;DHT22;49822;41.468;13.560;2023-03-14T05:34:58;10.60;91.90
63317;DHT22;49822;41.468;13.560;2023-03-14T05:37:38;10.70;91.40
63317;DHT22;49822;41.468;13.560;2023-03-14T05:40:30;10.80;90.90
63317;DHT22;49822;41.468;13.560;2023-03-14T05:43:21;10.80;90.40
63317;DHT22;49822;41.468;13.560;2023-03-14T05:45:55;10.80;90.40
63317;DHT22;49822;41.468;13.560;2023-03-14T05:48:36;10.80;92.20
63317;DHT22;49822;41.468;13.560;2023-03-14T05:51:22;10.80;91.00
63317;DHT22;49822;41.468;13.560;2023-03-14T05:54:13;10.90;90.60
63317;DHT22;49822;41.468;13.560;2023-03-14T05:56:56;11.00;90.50
63317;DHT22;49822;41.468;13.560;2023-03-14T05:59:52;10.90;88.40
63317;DHT22;49822;41.468;13.560;2023-03-14T06:02:43;10.80;89.00
63317;DHT22;49822;41.468;13.560;2023-03-14T06:05:20;10.80;87.50
63317;DHT22;49822;41.468;13.560;2023-03-14T06:07:49;10.60;86.90
63317;DHT22;49822;41.468;13.560;2023-03-14T06:10:17;10.60;87.00
63317;DHT22;49822;41.468;13.560;2023-03-14T06:12:46;10.50;87.40
63317;DHT22;49822;41.468;13.560;2023-03-14T06:15:14;10.40;87.50
63317;DHT22;49822;41.468;13.560;2023-03-14T06:17:44;10.50;87.40
63317;DHT22;49822;41.468;13.560;2023-03-14T06:20:12;10.50;87.60
63317;DHT22;49822;41.468;13.560;2023-03-14T06:22:40;10.60;87.50
63317;DHT22;49822;41.468;13.560;2023-03-14T06:25:11;10.60;87.60
63317;DHT22;49822;41.468;13.560;2023-03-14T06:27:39;10.60;87.60
63317;DHT22;49822;41.468;13.560;2023-03-14T06:30:08;10.50;88.20
63317;DHT22;49822;41.468;13.560;2023-03-14T06:32:36;10.60;88.20
63317;DHT22;49822;41.468;13.560;2023-03-14T06:35:08;10.50;88.30
63317;DHT22;49822;41.468;13.560;2023-03-14T06:37:39;10.60;88.20
63317;DHT22;49822;41.468;13.560;2023-03-14T06:40:09;10.70;88.00
63317;DHT22;49822;41.468;13.560;2023-03-14T06:43:01;10.70;88.30
63317;DHT22;49822;41.468;13.560;2023-03-14T06:45:32;10.80;88.30
63317;DHT22;49822;41.468;13.560;2023-03-14T06:48:03;10.90;88.20
63317;DHT22;49822;41.468;13.560;2023-03-14T06:50:37;10.80;88.70
63317;DHT22;49822;41.468;13.560;2023-03-14T06:53:05;10.90;88.40
63317;DHT22;49822;41.468;13.560;2023-03-14T06:55:35;11.10;88.60
63317;DHT22;49822;41.468;13.560;2023-03-14T06:58:02;11.30;88.50
63317;DHT22;49822;41.468;13.560;2023-03-14T07:00:34;11.70;88.50
63317;DHT22;49822;41.468;13.560;2023-03-14T07:03:04;11.80;88.40
63317;DHT22;49822;41.468;13.560;2023-03-14T07:05:36;12.00;87.30
63317;DHT22;49822;41.468;13.560;2023-03-14T07:08:12;12.10;87.20
63317;DHT22;49822;41.468;13.560;2023-03-14T07:10:40;12.30;87.40
63317;DHT22;49822;41.468;13.560;2023-03-14T07:13:08;12.80;86.80
63317;DHT22;49822;41.468;13.560;2023-03-14T07:15:45;12.90;86.40
63317;DHT22;49822;41.468;13.560;2023-03-14T07:18:13;13.00;86.10
63317;DHT22;49822;41.468;13.560;2023-03-14T07:20:40;13.20;86.40
63317;DHT22;49822;41.468;13.560;2023-03-14T07:23:16;13.30;86.10
63317;DHT22;49822;41.468;13.560;2023-03-14T07:26:08;13.60;86.20
63317;DHT22;49822;41.468;13.560;2023-03-14T07:28:38;13.70;86.00
63317;DHT22;49822;41.468;13.560;2023-03-14T07:31:11;13.80;86.00
63317;DHT22;49822;41.468;13.560;2023-03-14T07:33:39;13.90;85.70
63317;DHT22;49822;41.468;13.560;2023-03-14T07:36:07;14.00;85.60
63317;DHT22;49822;41.468;13.560;2023-03-14T07:38:35;14.00;85.20
63317;DHT22;49822;41.468;13.560;2023-03-14T07:41:22;14.20;85.10
63317;DHT22;49822;41.468;13.560;2023-03-14T07:44:09;14.10;85.00
63317;DHT22;49822;41.468;13.560;2023-03-14T07:46:36;14.20;85.10
63317;DHT22;49822;41.468;13.560;2023-03-14T07:49:04;14.30;85.60
63317;DHT22;49822;41.468;13.560;2023-03-14T07:51:32;14.30;85.00
63317;DHT22;49822;41.468;13.560;2023-03-14T07:53:59;14.40;84.80
63317;DHT22;49822;41.468;13.560;2023-03-14T07:56:27;14.50;84.90
63317;DHT22;49822;41.468;13.560;2023-03-14T07:58:54;14.50;84.90
63317;DHT22;49822;41.468;13.560;2023-03-14T08:01:22;14.50;84.50
63317;DHT22;49822;41.468;13.560;2023-03-14T08:03:50;14.50;83.90
63317;DHT22;49822;41.468;13.560;2023-03-14T08:06:18;14.50;84.50
63317;DHT22;49822;41.468;13.560;2023-03-14T08:08:45;14.50;83.90
63317;DHT22;49822;41.468;13.560;2023-03-14T08:11:13;14.60;83.90
63317;DHT22;49822;41.468;13.560;2023-03-14T08:13:43;14.70;84.00
63317;DHT22;49822;41.468;13.560;2023-03-14T08:16:17;14.60;83.90
63317;DHT22;49822;41.468;13.560;2023-03-14T08:18:45;14.80;84.10
63317;DHT22;49822;41.468;13.560;2023-03-14T08:21:13;14.90;84.00
63317;DHT22;49822;41.468;13.560;2023-03-14T08:23:41;14.90;83.90
63317;DHT22;49822;41.468;13.560;2023-03-14T08:26:09;15.10;83.50
63317;DHT22;49822;41.468;13.560;2023-03-14T08:28:36;15.00;83.70
63317;DHT22;49822;41.468;13.560;2023-03-14T08:31:04;15.10;83.40
63317;DHT22;49822;41.468;13.560;2023-03-14T08:33:32;15.20;83.60
63317;DHT22;49822;41.468;13.560;2023-03-14T08:36:00;15.30;83.40
63317;DHT22;49822;41.468;13.560;2023-03-14T08:38:29;15.20;82.50
63317;DHT22;49822;41.468;13.560;2023-03-14T08:40:57;15.20;82.10
63317;DHT22;49822;41.468;13.560;2023-03-14T08:43:26;15.30;82.60
63317;DHT22;49822;41.468;13.560;2023-03-14T08:45:57;15.10;83.10
63317;DHT22;49822;41.468;13.560;2023-03-14T08:48:24;15.40;83.30
63317;DHT22;49822;41.468;13.560;2023-03-14T08:50:52;15.50;82.60
63317;DHT22;49822;41.468;13.560;2023-03-14T08:53:20;15.60;81.70
63317;DHT22;49822;41.468;13.560;2023-03-14T08:55:53;15.80;80.90
63317;DHT22;49822;41.468;13.560;2023-03-14T08:58:21;16.00;81.20
63317;DHT22;49822;41.468;13.560;2023-03-14T09:00:50;16.10;79.40
63317;DHT22;49822;41.468;13.560;2023-03-14T09:03:18;16.20;80.10
63317;DHT22;49822;41.468;13.560;2023-03-14T09:05:45;16.50;80.30
63317;DHT22;49822;41.468;13.560;2023-03-14T09:08:13;16.70;79.70
63317;DHT22;49822;41.468;13.560;2023-03-14T09:10:40;16.70;78.70
63317;DHT22;49822;41.468;13.560;2023-03-14T09:13:07;16.80;78.40
63317;DHT22;49822;41.468;13.560;2023-03-14T09:15:36;16.70;77.70
63317;DHT22;49822;41.468;13.560;2023-03-14T09:18:06;16.90;78.40
63317;DHT22;49822;41.468;13.560;2023-03-14T09:20:33;17.10;78.70
63317;DHT22;49822;41.468;13.560;2023-03-14T09:23:01;17.30;78.00
63317;DHT22;49822;41.468;13.560;2023-03-14T09:25:28;17.50;78.30
63317;DHT22;49822;41.468;13.560;2023-03-14T09:27:56;17.60;76.80
63317;DHT22;49822;41.468;13.560;2023-03-14T09:30:25;17.80;76.50
63317;DHT22;49822;41.468;13.560;2023-03-14T09:32:55;17.80;75.60
63317;DHT22;49822;41.468;13.560;2023-03-14T09:35:22;17.90;76.70
63317;DHT22;49822;41.468;13.560;2023-03-14T09:37:51;18.00;75.50
63317;DHT22;49822;41.468;13.560;2023-03-14T09:40:19;18.20;75.10
63317;DHT22;49822;41.468;13.560;2023-03-14T09:42:50;18.30;75.50
63317;DHT22;49822;41.468;13.560;2023-03-14T09:45:29;18.40;74.10
63317;DHT22;49822;41.468;13.560;2023-03-14T09:48:02;18.60;73.50
63317;DHT22;49822;41.468;13.560;2023-03-14T09:50:40;18.80;74.00
63317;DHT22;49822;41.468;13.560;2023-03-14T09:53:16;18.80;73.60
63317;DHT22;49822;41.468;13.560;2023-03-14T09:55:49;18.80;73.50
63317;DHT22;49822;41.468;13.560;2023-03-14T09:58:20;19.00;74.60
63317;DHT22;49822;41.468;13.560;2023-03-14T10:00:50;18.60;71.20
63317;DHT22;49822;41.468;13.560;2023-03-14T10:03:34;18.90;72.30
63317;DHT22;49822;41.468;13.560;2023-03-14T10:06:09;19.10;71.90
63317;DHT22;49822;41.468;13.560;2023-03-14T10:08:42;19.30;71.20
63317;DHT22;49822;41.468;13.560;2023-03-14T10:11:20;19.40;71.60
63317;DHT22;49822;41.468;13.560;2023-03-14T10:14:11;19.60;70.20
63317;DHT22;49822;41.468;13.560;2023-03-14T10:16:46;19.50;70.20
63317;DHT22;49822;41.468;13.560;2023-03-14T10:19:15;19.70;71.60
63317;DHT22;49822;41.468;13.560;2023-03-14T10:21:50;19.80;70.90
63317;DHT22;49822;41.468;13.560;2023-03-14T10:24:22;20.00;69.50
63317;DHT22;49822;41.468;13.560;2023-03-14T10:27:21;20.00;70.10
63317;DHT22;49822;41.468;13.560;2023-03-14T10:29:54;19.90;68.20
63317;DHT22;49822;41.468;13.560;2023-03-14T10:32:33;19.40;68.20
63317;DHT22;49822;41.468;13.560;2023-03-14T10:35:18;19.00;68.70
63317;DHT22;49822;41.468;13.560;2023-03-14T10:37:59;18.90;69.30
63317;DHT22;49822;41.468;13.560;2023-03-14T10:40:33;18.70;69.20
63317;DHT22;49822;41.468;13.560;2023-03-14T10:43:04;18.20;69.60
63317;DHT22;49822;41.468;13.560;2023-03-14T10:45:41;18.30;69.80
63317;DHT22;49822;41.468;13.560;2023-03-14T10:48:19;18.10;70.50
63317;DHT22;49822;41.468;13.560;2023-03-14T10:56:21;17.50;67.60
63317;DHT22;49822;41.468;13.560;2023-03-14T10:58:58;17.40;67.10
63317;DHT22;49822;41.468;13.560;2023-03-14T11:10:34;17.80;66.10
63317;DHT22;49822;41.468;13.560;2023-03-14T11:13:29;17.70;65.90
63317;DHT22;49822;41.468;13.560;2023-03-14T11:16:18;17.70;65.40
63317;DHT22;49822;41.468;13.560;2023-03-14T11:19:16;17.50;66.00
63317;DHT22;49822;41.468;13.560;2023-03-14T11:27:23;17.50;65.00
63317;DHT22;49822;41.468;13.560;2023-03-14T11:33:13;17.60;63.70
63317;DHT22;49822;41.468;13.560;2023-03-14T11:38:29;17.60;64.10
63317;DHT22;49822;41.468;13.560;2023-03-14T11:40:58;17.50;63.70
63317;DHT22;49822;41.468;13.560;2023-03-14T11:43:32;17.50;64.70
63317;DHT22;49822;41.468;13.560;2023-03-14T11:46:28;17.50;62.50
63317;DHT22;49822;41.468;13.560;2023-03-14T11:52:11;17.50;63.00
63317;DHT22;49822;41.468;13.560;2023-03-14T11:54:48;17.50;62.90
63317;DHT22;49822;41.468;13.560;2023-03-14T11:57:21;17.40;62.60
63317;DHT22;49822;41.468;13.560;2023-03-14T12:00:19;17.50;63.60
63317;DHT22;49822;41.468;13.560;2023-03-14T12:11:30;17.30;63.00
63317;DHT22;49822;41.468;13.560;2023-03-14T12:14:00;17.50;62.80
63317;DHT22;49822;41.468;13.560;2023-03-14T12:16:36;17.60;63.20
63317;DHT22;49822;41.468;13.560;2023-03-14T12:25:23;17.70;62.80
63317;DHT22;49822;41.468;13.560;2023-03-14T12:30:35;17.70;64.00
63317;DHT22;49822;41.468;13.560;2023-03-14T12:35:51;17.60;63.20
63317;DHT22;49822;41.468;13.560;2023-03-14T12:41:14;17.40;63.90
63317;DHT22;49822;41.468;13.560;2023-03-14T12:43:41;17.40;64.70
63317;DHT22;49822;41.468;13.560;2023-03-14T12:51:37;17.10;64.90
63317;DHT22;49822;41.468;13.560;2023-03-14T13:02:26;17.00;68.70
63317;DHT22;49822;41.468;13.560;2023-03-14T13:05:16;16.90;68.90
63317;DHT22;49822;41.468;13.560;2023-03-14T13:10:27;16.60;71.80
63317;DHT22;49822;41.468;13.560;2023-03-14T13:15:45;16.40;72.30
63317;DHT22;49822;41.468;13.560;2023-03-14T13:18:32;16.50;72.30
63317;DHT22;49822;41.468;13.560;2023-03-14T13:21:21;16.50;72.00
63317;DHT22;49822;41.468;13.560;2023-03-14T13:23:58;16.40;73.10
63317;DHT22;49822;41.468;13.560;2023-03-14T13:26:36;16.40;73.40
63317;DHT22;49822;41.468;13.560;2023-03-14T13:31:52;16.30;74.20
63317;DHT22;49822;41.468;13.560;2023-03-14T13:34:20;16.30;74.50
63317;DHT22;49822;41.468;13.560;2023-03-14T13:36:52;16.10;76.80
63317;DHT22;49822;41.468;13.560;2023-03-14T13:39:22;15.80;77.30
63317;DHT22;49822;41.468;13.560;2023-03-14T13:41:53;15.70;77.80
63317;DHT22;49822;41.468;13.560;2023-03-14T13:44:31;15.50;78.10
63317;DHT22;49822;41.468;13.560;2023-03-14T13:47:01;15.50;78.70
63317;DHT22;49822;41.468;13.560;2023-03-14T13:49:32;15.30;79.40
63317;DHT22;49822;41.468;13.560;2023-03-14T13:52:03;15.40;79.30
63317;DHT22;49822;41.468;13.560;2023-03-14T13:54:31;15.40;79.60
63317;DHT22;49822;41.468;13.560;2023-03-14T13:57:04;15.50;78.90
63317;DHT22;49822;41.468;13.560;2023-03-14T13:59:34;15.30;80.40
63317;DHT22;49822;41.468;13.560;2023-03-14T14:02:13;15.20;80.90
63317;DHT22;49822;41.468;13.560;2023-03-14T14:04:44;15.20;80.90
63317;DHT22;49822;41.468;13.560;2023-03-14T14:07:16;15.10;81.60
63317;DHT22;49822;41.468;13.560;2023-03-14T14:09:52;15.10;81.40
63317;DHT22;49822;41.468;13.560;2023-03-14T14:12:29;15.10;81.30
63317;DHT22;49822;41.468;13.560;2023-03-14T14:15:02;15.20;80.70
63317;DHT22;49822;41.468;13.560;2023-03-14T14:20:18;15.40;81.20
63317;DHT22;49822;41.468;13.560;2023-03-14T14:22:49;15.40;81.20
63317;DHT22;49822;41.468;13.560;2023-03-14T14:25:17;15.00;81.50
63317;DHT22;49822;41.468;13.560;2023-03-14T14:27:48;14.70;82.50
63317;DHT22;49822;41.468;13.560;2023-03-14T14:32:46;14.80;82.60
63317;DHT22;49822;41.468;13.560;2023-03-14T14:35:32;14.80;82.80
63317;DHT22;49822;41.468;13.560;2023-03-14T14:38:12;14.80;82.40
63317;DHT22;49822;41.468;13.560;2023-03-14T14:40:45;15.00;82.30
63317;DHT22;49822;41.468;13.560;2023-03-14T14:43:21;14.90;82.50
63317;DHT22;49822;41.468;13.560;2023-03-14T14:45:52;14.90;82.50
63317;DHT22;49822;41.468;13.560;2023-03-14T14:48:25;14.80;83.30
63317;DHT22;49822;41.468;13.560;2023-03-14T14:50:57;14.90;83.70
63317;DHT22;49822;41.468;13.560;2023-03-14T14:53:40;14.90;84.20
63317;DHT22;49822;41.468;13.560;2023-03-14T14:56:26;15.00;84.70
63317;DHT22;49822;41.468;13.560;2023-03-14T14:59:01;14.90;85.00
63317;DHT22;49822;41.468;13.560;2023-03-14T15:01:38;14.90;84.20
63317;DHT22;49822;41.468;13.560;2023-03-14T15:04:14;14.70;85.10
63317;DHT22;49822;41.468;13.560;2023-03-14T15:06:44;14.40;85.60
63317;DHT22;49822;41.468;13.560;2023-03-14T15:09:13;14.40;85.80
63317;DHT22;49822;41.468;13.560;2023-03-14T15:11:41;14.40;86.70
63317;DHT22;49822;41.468;13.560;2023-03-14T15:14:09;14.40;86.20
63317;DHT22;49822;41.468;13.560;2023-03-14T15:16:36;14.50;85.90
63317;DHT22;49822;41.468;13.560;2023-03-14T15:19:23;14.40;86.40
63317;DHT22;49822;41.468;13.560;2023-03-14T15:21:53;14.50;86.50
63317;DHT22;49822;41.468;13.560;2023-03-14T15:24:21;14.60;86.70
63317;DHT22;49822;41.468;13.560;2023-03-14T15:26:50;14.50;86.90
63317;DHT22;49822;41.468;13.560;2023-03-14T15:29:18;14.50;86.60
63317;DHT22;49822;41.468;13.560;2023-03-14T15:31:45;14.60;86.70
63317;DHT22;49822;41.468;13.560;2023-03-14T15:34:13;14.60;86.80
63317;DHT22;49822;41.468;13.560;2023-03-14T15:36:40;14.60;86.60
63317;DHT22;49822;41.468;13.560;2023-03-14T15:39:10;14.60;86.80
63317;DHT22;49822;41.468;13.560;2023-03-14T15:41:38;14.60;87.20
63317;DHT22;49822;41.468;13.560;2023-03-14T15:44:06;14.50;87.40
63317;DHT22;49822;41.468;13.560;2023-03-14T15:46:33;14.10;88.20
63317;DHT22;49822;41.468;13.560;2023-03-14T15:49:02;14.10;88.20
63317;DHT22;49822;41.468;13.560;2023-03-14T15:51:29;14.10;87.80
63317;DHT22;49822;41.468;13.560;2023-03-14T15:53:57;14.10;87.60
63317;DHT22;49822;41.468;13.560;2023-03-14T15:56:25;14.20;88.10
63317;DHT22;49822;41.468;13.560;2023-03-14T15:58:55;14.20;87.60
63317;DHT22;49822;41.468;13.560;2023-03-14T16:01:22;14.20;87.70
63317;DHT22;49822;41.468;13.560;2023-03-14T16:03:50;14.30;87.80
63317;DHT22;49822;41.468;13.560;2023-03-14T16:06:19;14.30;87.50
63317;DHT22;49822;41.468;13.560;2023-03-14T16:08:47;14.30;87.50
63317;DHT22;49822;41.468;13.560;2023-03-14T16:11:15;14.30;87.70
63317;DHT22;49822;41.468;13.560;2023-03-14T16:13:49;14.40;87.70
63317;DHT22;49822;41.468;13.560;2023-03-14T16:16:16;14.40;87.50
63317;DHT22;49822;41.468;13.560;2023-03-14T16:18:44;14.40;88.30
63317;DHT22;49822;41.468;13.560;2023-03-14T16:21:14;14.40;87.70
63317;DHT22;49822;41.468;13.560;2023-03-14T16:23:42;14.30;89.10
63317;DHT22;49822;41.468;13.560;2023-03-14T16:26:12;14.20;88.70
63317;DHT22;49822;41.468;13.560;2023-03-14T16:28:41;14.20;89.10
63317;DHT22;49822;41.468;13.560;2023-03-14T16:31:11;14.20;89.00
63317;DHT22;49822;41.468;13.560;2023-03-14T16:33:40;14.20;88.80
63317;DHT22;49822;41.468;13.560;2023-03-14T16:36:09;14.20;89.00
63317;DHT22;49822;41.468;13.560;2023-03-14T16:38:40;14.20;88.20
63317;DHT22;49822;41.468;13.560;2023-03-14T16:41:12;14.20;88.10
63317;DHT22;49822;41.468;13.560;2023-03-14T16:43:41;14.20;87.80
63317;DHT22;49822;41.468;13.560;2023-03-14T16:46:13;14.30;88.60
63317;DHT22;49822;41.468;13.560;2023-03-14T16:48:45;14.20;89.00
63317;DHT22;49822;41.468;13.560;2023-03-14T16:51:13;14.00;89.70
63317;DHT22;49822;41.468;13.560;2023-03-14T16:53:43;14.00;89.60
63317;DHT22;49822;41.468;13.560;2023-03-14T16:56:10;13.90;90.20
63317;DHT22;49822;41.468;13.560;2023-03-14T16:58:39;13.90;90.60
63317;DHT22;49822;41.468;13.560;2023-03-14T17:01:07;13.80;91.30
63317;DHT22;49822;41.468;13.560;2023-03-14T17:03:39;13.70;91.70
63317;DHT22;49822;41.468;13.560;2023-03-14T17:06:10;13.50;92.30
63317;DHT22;49822;41.468;13.560;2023-03-14T17:08:38;13.40;92.40
63317;DHT22;49822;41.468;13.560;2023-03-14T17:11:06;13.50;91.80
63317;DHT22;49822;41.468;13.560;2023-03-14T17:13:37;13.40;91.60
63317;DHT22;49822;41.468;13.560;2023-03-14T17:16:06;13.10;92.90